createdAt,value
2024-04-21T00:01:08.644Z,0.50
2024-04-21T00:03:38.621Z,0.50
2024-04-21T00:05:48.227Z,0.40
2024-04-21T00:07:57.737Z,0.50
2024-04-21T00:10:08.123Z,0.50
2024-04-21T00:12:17.511Z,0.50
2024-04-21T00:14:26.773Z,0.40
2024-04-21T00:16:36.474Z,0.60
2024-04-21T00:18:45.912Z,0.40
2024-04-21T00:20:55.297Z,0.40
2024-04-21T00:23:05.019Z,0.80
2024-04-21T00:25:14.798Z,0.50
2024-04-21T00:27:24.788Z,0.60
2024-04-21T00:29:34.558Z,0.50
2024-04-21T00:31:44.982Z,1.10
2024-04-21T00:33:55.517Z,0.50
2024-04-21T00:36:05.883Z,0.50
2024-04-21T00:38:15.600Z,0.70
2024-04-21T00:40:26.105Z,0.70
2024-04-21T00:42:39.014Z,0.60
2024-04-21T00:44:48.467Z,0.80
2024-04-21T00:46:58.263Z,0.90
2024-04-21T00:49:08.573Z,0.70
2024-04-21T00:51:18.667Z,0.50
2024-04-21T00:53:29.077Z,0.70
2024-04-21T00:55:39.540Z,0.60
2024-04-21T00:57:49.313Z,0.60
2024-04-21T00:59:59.128Z,0.80
2024-04-21T01:02:09.485Z,0.90
2024-04-21T01:04:19.188Z,0.80
2024-04-21T01:06:28.943Z,0.70
2024-04-21T01:08:39.231Z,0.60
2024-04-21T01:10:48.893Z,0.60
2024-04-21T01:12:58.960Z,0.60
2024-04-21T01:15:09.528Z,0.50
2024-04-21T01:17:19.316Z,0.60
2024-04-21T01:19:28.632Z,0.80
2024-04-21T01:21:39.227Z,0.70
2024-04-21T01:23:49.047Z,0.70
2024-04-21T01:25:58.773Z,0.40
2024-04-21T01:28:09.348Z,0.70
2024-04-21T01:30:20.523Z,0.30
2024-04-21T01:32:29.878Z,0.30
2024-04-21T01:34:40.682Z,0.40
2024-04-21T01:36:50.739Z,0.40
2024-04-21T01:39:02.166Z,0.40
2024-04-21T01:41:11.916Z,0.30
2024-04-21T01:43:22.282Z,0.30
2024-04-21T01:45:32.619Z,0.30
2024-04-21T01:47:42.698Z,0.30
2024-04-21T01:49:52.824Z,0.20
2024-04-21T01:52:03.942Z,0.20
2024-04-21T01:54:13.405Z,0.30
2024-04-21T01:56:23.403Z,0.40
2024-04-21T01:58:32.926Z,0.40
2024-04-21T02:00:42.890Z,0.40
2024-04-21T02:02:52.673Z,0.60
2024-04-21T02:05:02.839Z,0.30
2024-04-21T02:07:13.539Z,0.40
2024-04-21T02:09:22.918Z,0.60
2024-04-21T02:11:32.604Z,0.70
2024-04-21T02:13:42.855Z,0.70
2024-04-21T02:15:55.371Z,0.70
2024-04-21T02:18:04.865Z,0.80
2024-04-21T02:20:15.059Z,0.70
2024-04-21T02:22:24.632Z,0.70
2024-04-21T02:24:43.608Z,1.00
2024-04-21T02:26:53.259Z,0.60
2024-04-21T02:29:02.685Z,1.00
2024-04-21T02:31:12.703Z,1.10
2024-04-21T02:33:25.127Z,0.90
2024-04-21T02:35:35.700Z,0.80
2024-04-21T02:37:45.380Z,0.90
2024-04-21T02:39:54.821Z,1.50
2024-04-21T02:42:04.344Z,1.10
2024-04-21T02:44:14.030Z,0.90
2024-04-21T02:46:24.356Z,1.00
2024-04-21T02:48:34.063Z,1.10
2024-04-21T02:50:47.668Z,0.90
2024-04-21T02:52:57.027Z,1.00
2024-04-21T02:55:06.749Z,1.20
2024-04-21T02:57:16.099Z,1.10
2024-04-21T02:59:27.658Z,1.20
2024-04-21T03:01:38.718Z,1.00
2024-04-21T03:03:51.323Z,0.90
2024-04-21T03:06:01.506Z,1.10
2024-04-21T03:08:11.874Z,1.10
2024-04-21T03:10:21.363Z,0.90
2024-04-21T03:12:31.140Z,1.10
2024-04-21T03:14:40.993Z,1.20
2024-04-21T03:16:51.305Z,1.40
2024-04-21T03:19:00.830Z,1.20
2024-04-21T03:21:10.451Z,0.90
2024-04-21T03:23:20.073Z,1.50
2024-04-21T03:25:29.579Z,1.10
2024-04-21T03:27:40.566Z,1.20
2024-04-21T03:29:52.253Z,1.20
2024-04-21T03:32:02.286Z,0.90
2024-04-21T03:34:13.130Z,1.10
2024-04-21T03:36:22.478Z,1.20
2024-04-21T03:38:32.275Z,1.50
2024-04-21T03:40:44.493Z,1.00
2024-04-21T03:42:53.891Z,0.90
2024-04-21T03:45:03.240Z,1.20
2024-04-21T03:47:12.879Z,1.10
2024-04-21T03:49:22.313Z,1.70
2024-04-21T03:51:33.800Z,1.20
2024-04-21T03:53:47.328Z,0.80
2024-04-21T03:56:00.813Z,1.20
2024-04-21T03:58:10.486Z,1.20
2024-04-21T04:00:20.350Z,1.50
2024-04-21T04:02:31.279Z,1.20
2024-04-21T04:04:41.269Z,1.30
2024-04-21T04:06:50.659Z,1.10
2024-04-21T04:09:00.688Z,1.40
2024-04-21T04:11:10.423Z,0.90
2024-04-21T04:13:20.066Z,1.90
2024-04-21T04:15:30.218Z,1.20
2024-04-21T04:17:42.020Z,1.20
2024-04-21T04:19:54.503Z,1.50
2024-04-21T04:22:04.200Z,1.10
2024-04-21T04:24:14.006Z,1.20
2024-04-21T04:26:23.233Z,1.10
2024-04-21T04:28:32.564Z,1.30
2024-04-21T04:30:43.232Z,1.00
2024-04-21T04:32:52.647Z,0.90
2024-04-21T04:35:02.027Z,1.70
2024-04-21T04:37:11.295Z,1.20
2024-04-21T04:39:21.479Z,1.30
2024-04-21T04:41:30.927Z,1.10
2024-04-21T04:43:40.316Z,1.40
2024-04-21T04:45:49.949Z,1.50
2024-04-21T04:47:59.416Z,1.00
2024-04-21T04:50:09.762Z,1.40
2024-04-21T04:54:28.784Z,1.20
2024-04-21T04:56:41.069Z,0.80
2024-04-21T04:58:50.403Z,1.30
2024-04-21T05:00:59.816Z,1.20
2024-04-21T05:03:09.791Z,1.00
2024-04-21T05:05:19.551Z,1.30
2024-04-21T05:07:29.050Z,1.20
2024-04-21T05:09:39.147Z,1.00
2024-04-21T05:11:48.795Z,1.30
2024-04-21T05:13:58.655Z,0.90
2024-04-21T05:16:10.051Z,1.60
2024-04-21T05:18:19.566Z,1.00
2024-04-21T05:20:29.061Z,1.20
2024-04-21T05:22:38.967Z,1.20
2024-04-21T05:24:48.460Z,1.00
2024-04-21T05:26:57.886Z,1.30
2024-04-21T05:29:07.460Z,1.00
2024-04-21T05:31:17.256Z,1.40
2024-04-21T05:33:26.754Z,1.60
2024-04-21T05:35:36.122Z,1.00
2024-04-21T05:37:46.048Z,1.50
2024-04-21T05:39:55.693Z,1.20
2024-04-21T05:42:05.249Z,1.70
2024-04-21T05:44:14.701Z,1.50
2024-04-21T05:46:24.075Z,1.00
2024-04-21T05:48:34.811Z,1.70
2024-04-21T05:50:47.167Z,1.20
2024-04-21T05:52:56.835Z,1.40
2024-04-21T05:55:07.005Z,1.40
2024-04-21T05:57:16.622Z,1.30
2024-04-21T05:59:29.708Z,1.00
2024-04-21T06:01:40.206Z,1.50
2024-04-21T06:03:49.928Z,1.50
2024-04-21T06:05:59.348Z,1.60
2024-04-21T06:08:10.154Z,1.50
2024-04-21T06:10:20.392Z,1.90
2024-04-21T06:12:30.016Z,1.40
2024-04-21T06:14:39.726Z,1.60
2024-04-21T06:16:49.229Z,1.70
2024-04-21T06:18:58.835Z,1.20
2024-04-21T06:21:08.855Z,2.20
2024-04-21T06:23:18.644Z,1.70
2024-04-21T06:25:28.037Z,2.00
2024-04-21T06:27:37.495Z,1.60
2024-04-21T06:29:47.353Z,1.60
2024-04-21T06:31:56.724Z,1.50
2024-04-21T06:34:06.185Z,1.60
2024-04-21T06:36:15.928Z,1.70
2024-04-21T06:38:25.322Z,1.60
2024-04-21T06:40:35.565Z,1.50
2024-04-21T06:42:45.200Z,1.10
2024-04-21T06:44:54.740Z,1.40
2024-04-21T06:47:04.301Z,1.30
2024-04-21T06:49:13.911Z,1.20
2024-04-21T06:51:23.214Z,1.10
2024-04-21T06:53:35.747Z,1.10
2024-04-21T06:55:46.108Z,1.20
2024-04-21T06:57:55.728Z,1.40
2024-04-21T07:00:05.283Z,3.20
2024-04-21T07:02:15.288Z,1.20
2024-04-21T07:04:24.681Z,1.40
2024-04-21T07:06:34.167Z,1.50
2024-04-21T07:08:43.781Z,1.40
2024-04-21T07:10:54.067Z,1.50
2024-04-21T07:13:03.427Z,1.70
2024-04-21T07:15:13.758Z,1.80
2024-04-21T07:17:23.123Z,2.60
2024-04-21T07:19:32.654Z,1.80
2024-04-21T07:21:42.256Z,1.20
2024-04-21T07:23:51.688Z,1.40
2024-04-21T07:26:01.136Z,1.70
2024-04-21T07:28:10.982Z,1.40
2024-04-21T07:30:21.017Z,1.70
2024-04-21T07:32:30.996Z,1.70
2024-04-21T07:34:41.729Z,1.00
2024-04-21T07:36:51.859Z,1.90
2024-04-21T07:39:01.459Z,1.40
2024-04-21T07:41:11.167Z,1.70
2024-04-21T07:43:20.862Z,1.80
2024-04-21T07:45:30.477Z,1.80
2024-04-21T07:47:40.671Z,1.20
2024-04-21T07:49:52.635Z,1.90
2024-04-21T07:52:01.907Z,1.20
2024-04-21T07:54:11.152Z,2.00
2024-04-21T07:56:21.094Z,2.00
2024-04-21T07:58:31.395Z,1.60
2024-04-21T08:00:43.411Z,2.40
2024-04-21T08:02:54.284Z,1.90
2024-04-21T08:05:03.783Z,1.50
2024-04-21T08:07:13.370Z,1.70
2024-04-21T08:09:30.168Z,1.40
2024-04-21T08:11:42.432Z,1.80
2024-04-21T08:13:52.349Z,1.70
2024-04-21T08:16:02.489Z,1.70
2024-04-21T08:18:12.366Z,1.40
2024-04-21T08:20:22.995Z,1.40
2024-04-21T08:22:32.714Z,1.60
2024-04-21T08:24:43.119Z,1.80
2024-04-21T08:26:55.983Z,1.30
2024-04-21T08:29:05.688Z,2.30
2024-04-21T08:31:15.053Z,1.80
2024-04-21T08:33:24.422Z,1.50
2024-04-21T08:35:35.823Z,1.80
2024-04-21T08:37:45.672Z,1.80
2024-04-21T08:39:55.170Z,1.90
2024-04-21T08:42:08.215Z,1.80
2024-04-21T08:44:18.284Z,1.90
2024-04-21T08:46:28.394Z,1.80
2024-04-21T08:48:38.050Z,1.60
2024-04-21T08:50:48.948Z,1.80
2024-04-21T08:52:58.442Z,1.80
2024-04-21T08:55:09.728Z,1.90
2024-04-21T08:57:22.473Z,1.50
2024-04-21T08:59:33.735Z,2.20
2024-04-21T09:03:53.589Z,2.10
2024-04-21T09:06:04.501Z,1.50
2024-04-21T09:08:14.328Z,1.60
2024-04-21T09:10:23.782Z,2.80
2024-04-21T09:12:34.137Z,1.70
2024-04-21T09:14:50.326Z,1.60
2024-04-21T09:16:59.856Z,2.00
2024-04-21T09:19:09.285Z,2.00
2024-04-21T09:21:19.045Z,1.70
2024-04-21T09:23:28.459Z,2.40
2024-04-21T09:25:38.657Z,1.60
2024-04-21T09:27:51.536Z,1.70
2024-04-21T09:30:00.873Z,1.60
2024-04-21T09:32:14.984Z,1.90
2024-04-21T09:34:25.110Z,1.80
2024-04-21T09:36:34.684Z,2.00
2024-04-21T09:38:46.123Z,1.80
2024-04-21T09:40:58.737Z,1.50
2024-04-21T09:43:10.057Z,1.70
2024-04-21T09:45:22.483Z,1.90
2024-04-21T09:47:34.167Z,1.70
2024-04-21T09:49:45.288Z,2.50
2024-04-21T09:51:55.626Z,2.10
2024-04-21T09:54:06.817Z,1.70
2024-04-21T09:56:21.868Z,2.20
2024-04-21T09:58:36.389Z,1.90
2024-04-21T10:00:51.823Z,1.70
2024-04-21T10:03:06.930Z,1.90
2024-04-21T10:05:18.319Z,2.10
2024-04-21T10:07:29.960Z,2.30
2024-04-21T10:09:40.409Z,1.20
2024-04-21T10:12:39.709Z,1.90
2024-04-21T10:14:50.026Z,2.20
2024-04-21T10:17:00.577Z,1.90
2024-04-21T10:19:10.865Z,1.50
2024-04-21T10:21:21.064Z,1.80
2024-04-21T10:23:31.647Z,2.40
2024-04-21T10:25:45.663Z,1.90
2024-04-21T10:28:04.475Z,2.10
2024-04-21T10:30:19.726Z,1.70
2024-04-21T10:32:32.379Z,2.10
2024-04-21T10:34:48.700Z,1.50
2024-04-21T10:36:57.985Z,2.00
2024-04-21T10:39:08.148Z,2.10
2024-04-21T10:41:20.195Z,2.30
2024-04-21T10:48:41.211Z,2.60
2024-04-21T10:50:50.719Z,2.80
2024-04-21T10:53:02.175Z,3.40
2024-04-21T10:55:12.375Z,3.30
2024-04-21T10:57:21.965Z,3.00
2024-04-21T10:59:33.019Z,2.50
2024-04-21T11:01:43.880Z,3.00
2024-04-21T11:03:53.643Z,2.20
2024-04-21T11:06:06.892Z,2.70
2024-04-21T11:08:16.465Z,2.20
2024-04-21T11:10:26.944Z,2.00
2024-04-21T11:12:41.695Z,2.10
2024-04-21T11:14:58.707Z,3.20
2024-04-21T11:17:08.909Z,2.30
2024-04-21T11:19:18.455Z,2.80
2024-04-21T11:21:28.428Z,2.20
2024-04-21T11:23:40.338Z,1.90
2024-04-21T11:25:53.747Z,1.90
2024-04-21T11:28:10.750Z,2.30
2024-04-21T11:30:22.774Z,2.00
2024-04-21T11:32:32.929Z,2.50
2024-04-21T11:34:43.736Z,2.70
2024-04-21T11:36:53.546Z,2.10
2024-04-21T11:39:03.412Z,2.10
2024-04-21T11:41:14.364Z,2.30
2024-04-21T11:43:24.613Z,2.00
2024-04-21T11:45:35.536Z,1.70
2024-04-21T11:47:50.848Z,2.20
2024-04-21T11:50:00.458Z,1.80
2024-04-21T11:52:10.623Z,2.30
2024-04-21T11:54:20.787Z,2.10
2024-04-21T11:56:30.949Z,2.20
2024-04-21T11:58:40.785Z,2.40
2024-04-21T12:00:50.388Z,2.30
2024-04-21T12:02:59.981Z,2.00
2024-04-21T12:05:10.134Z,2.50
2024-04-21T12:07:24.402Z,1.90
2024-04-21T12:09:34.192Z,2.20
2024-04-21T12:11:46.660Z,2.40
2024-04-21T12:14:16.228Z,2.50
2024-04-21T12:16:25.711Z,2.00
2024-04-21T12:18:35.185Z,1.70
2024-04-21T12:20:45.226Z,1.90
2024-04-21T12:22:54.431Z,2.40
2024-04-21T12:25:04.397Z,2.20
2024-04-21T12:27:14.402Z,2.00
2024-04-21T12:29:24.639Z,1.50
2024-04-21T12:31:34.199Z,2.30
2024-04-21T12:33:43.863Z,2.40
2024-04-21T12:35:53.128Z,2.50
2024-04-21T12:38:03.187Z,2.50
2024-04-21T12:40:13.969Z,2.00
2024-04-21T12:42:23.618Z,2.70
2024-04-21T12:44:33.387Z,2.30
2024-04-21T12:46:43.180Z,2.40
2024-04-21T12:48:52.604Z,2.10
2024-04-21T12:51:02.233Z,2.20
2024-04-21T12:53:12.018Z,2.40
2024-04-21T12:55:22.068Z,2.30
2024-04-21T12:57:31.596Z,2.30
2024-04-21T12:59:45.681Z,2.10
2024-04-21T13:01:55.672Z,2.20
2024-04-21T13:04:09.650Z,2.60
2024-04-21T13:06:18.906Z,2.50
2024-04-21T13:08:29.285Z,2.20
2024-04-21T13:10:41.864Z,2.80
2024-04-21T13:12:51.620Z,2.40
2024-04-21T13:15:01.019Z,2.70
2024-04-21T13:17:13.461Z,2.30
2024-04-21T13:19:25.018Z,2.30
2024-04-21T13:21:34.254Z,2.00
2024-04-21T13:23:44.005Z,1.80
2024-04-21T13:25:54.648Z,2.00
2024-04-21T13:28:04.071Z,2.70
2024-04-21T13:30:15.038Z,2.40
2024-04-21T13:32:24.801Z,2.70
2024-04-21T13:34:34.481Z,2.30
2024-04-21T13:36:44.088Z,1.90
2024-04-21T13:38:53.508Z,2.30
2024-04-21T13:41:03.282Z,2.50
2024-04-21T13:43:12.869Z,2.70
2024-04-21T13:45:22.783Z,3.50
2024-04-21T13:47:33.684Z,2.90
2024-04-21T13:49:43.902Z,2.50
2024-04-21T13:51:53.441Z,2.70
2024-04-21T13:54:03.145Z,3.00
2024-04-21T13:56:14.366Z,2.80
2024-04-21T13:58:24.340Z,2.60
2024-04-21T14:00:33.827Z,3.00
2024-04-21T14:02:43.735Z,2.60
2024-04-21T14:04:53.262Z,2.70
2024-04-21T14:07:03.952Z,3.20
2024-04-21T14:09:15.158Z,2.70
2024-04-21T14:11:25.065Z,2.90
2024-04-21T14:13:34.688Z,2.60
2024-04-21T14:15:44.188Z,2.50
2024-04-21T14:17:53.741Z,2.20
2024-04-21T14:20:03.385Z,2.20
2024-04-21T14:22:13.291Z,2.50
2024-04-21T14:24:22.816Z,2.60
2024-04-21T14:26:32.679Z,2.60
2024-04-21T14:28:42.367Z,2.00
2024-04-21T14:30:52.700Z,2.50
2024-04-21T14:33:02.074Z,1.90
2024-04-21T14:35:14.092Z,2.10
2024-04-21T14:37:23.602Z,2.70
2024-04-21T14:39:33.013Z,3.10
2024-04-21T14:41:43.312Z,1.50
2024-04-21T14:43:55.899Z,1.80
2024-04-21T14:46:07.101Z,1.50
2024-04-21T14:48:16.951Z,1.90
2024-04-21T14:50:26.560Z,1.20
2024-04-21T14:52:44.693Z,2.10
2024-04-21T14:54:54.345Z,2.00
2024-04-21T14:57:04.951Z,2.40
2024-04-21T14:59:17.255Z,1.80
2024-04-21T15:01:26.917Z,1.90
2024-04-21T15:03:36.344Z,2.40
2024-04-21T15:05:45.748Z,1.30
2024-04-21T15:07:55.228Z,1.60
2024-04-21T15:10:04.608Z,2.00
2024-04-21T15:12:15.881Z,1.80
2024-04-21T15:14:26.163Z,2.00
2024-04-21T15:16:38.370Z,2.00
2024-04-21T15:18:51.864Z,1.60
2024-04-21T15:21:01.291Z,1.90
2024-04-21T15:23:11.057Z,1.50
2024-04-21T15:25:21.643Z,1.60
2024-04-21T15:27:32.010Z,1.80
2024-04-21T15:29:42.007Z,1.50
2024-04-21T15:31:51.804Z,1.90
2024-04-21T15:34:01.419Z,1.50
2024-04-21T15:36:14.648Z,2.00
2024-04-21T15:38:24.185Z,1.90
2024-04-21T15:40:33.680Z,1.90
2024-04-21T15:42:43.722Z,1.60
2024-04-21T15:44:53.366Z,1.60
2024-04-21T15:47:02.905Z,2.00
2024-04-21T15:49:15.755Z,2.10
2024-04-21T15:51:25.880Z,1.40
2024-04-21T15:53:35.539Z,1.90
2024-04-21T15:55:45.748Z,1.80
2024-04-21T15:57:55.705Z,1.80
2024-04-21T16:00:05.689Z,1.90
2024-04-21T16:02:16.058Z,1.80
2024-04-21T16:04:25.663Z,1.90
2024-04-21T16:06:35.363Z,2.30
2024-04-21T16:08:47.298Z,1.90
2024-04-21T16:10:57.102Z,1.70
2024-04-21T16:13:06.886Z,1.70
2024-04-21T16:15:20.251Z,2.00
2024-04-21T16:17:30.039Z,2.20
2024-04-21T16:19:39.884Z,2.20
2024-04-21T16:21:51.920Z,1.90
2024-04-21T16:24:01.556Z,1.90
2024-04-21T16:26:11.203Z,1.80
2024-04-21T16:28:21.401Z,1.50
2024-04-21T16:30:32.020Z,2.40
2024-04-21T16:32:43.151Z,2.40
2024-04-21T16:34:53.957Z,2.30
2024-04-21T16:37:04.906Z,1.90
2024-04-21T16:39:15.775Z,1.90
2024-04-21T16:41:26.764Z,1.50
2024-04-21T16:43:39.855Z,1.10
2024-04-21T16:45:54.413Z,2.00
2024-04-21T16:48:08.926Z,1.50
2024-04-21T16:50:20.319Z,1.60
2024-04-21T16:52:31.172Z,1.90
2024-04-21T16:54:41.877Z,1.80
2024-04-21T16:56:54.145Z,1.30
2024-04-21T16:59:09.640Z,1.20
2024-04-21T17:01:20.274Z,1.50
2024-04-21T17:03:31.043Z,1.50
2024-04-21T17:05:42.543Z,1.90
2024-04-21T17:08:03.333Z,2.30
2024-04-21T17:10:15.789Z,1.30
2024-04-21T17:12:27.948Z,1.40
2024-04-21T17:14:37.400Z,1.50
2024-04-21T17:16:47.355Z,1.40
2024-04-21T17:18:56.856Z,1.40
2024-04-21T17:21:06.628Z,1.10
2024-04-21T17:23:16.081Z,1.50
2024-04-21T17:25:25.678Z,1.70
2024-04-21T17:27:35.353Z,1.50
2024-04-21T17:29:46.223Z,1.40
2024-04-21T17:31:56.954Z,1.30
2024-04-21T17:34:06.498Z,1.40
2024-04-21T17:36:15.930Z,0.90
2024-04-21T17:38:25.761Z,1.20
2024-04-21T17:40:35.191Z,1.50
2024-04-21T17:42:45.069Z,1.10
2024-04-21T17:44:54.595Z,1.10
2024-04-21T17:47:04.340Z,1.30
2024-04-21T17:49:14.272Z,1.30
2024-04-21T17:51:23.868Z,0.90
2024-04-21T17:53:33.488Z,0.90
2024-04-21T17:55:44.506Z,1.10
2024-04-21T17:57:54.102Z,1.00
2024-04-21T18:00:04.028Z,1.50
2024-04-21T18:02:13.480Z,1.20
2024-04-21T18:04:23.587Z,1.00
2024-04-21T18:06:33.204Z,1.10
2024-04-21T18:08:43.004Z,1.10
2024-04-21T18:10:59.654Z,0.90
2024-04-21T18:13:09.279Z,1.40
2024-04-21T18:15:19.163Z,1.30
2024-04-21T18:17:29.016Z,1.60
2024-04-21T18:19:38.967Z,1.70
2024-04-21T18:21:52.923Z,1.10
2024-04-21T18:24:02.498Z,0.80
2024-04-21T18:26:11.986Z,1.40
2024-04-21T18:28:21.709Z,0.90
2024-04-21T18:30:37.893Z,1.10
2024-04-21T18:32:47.858Z,1.10
2024-04-21T18:34:58.669Z,0.80
2024-04-21T18:37:08.733Z,1.20
2024-04-21T18:39:18.760Z,1.00
2024-04-21T18:41:28.367Z,1.20
2024-04-21T18:43:38.098Z,0.80
2024-04-21T18:45:48.187Z,0.80
2024-04-21T18:47:57.842Z,0.80
2024-04-21T18:50:09.829Z,0.90
2024-04-21T18:52:19.884Z,1.10
2024-04-21T18:54:29.486Z,0.90
2024-04-21T18:56:39.315Z,0.90
2024-04-21T18:58:49.193Z,1.10
2024-04-21T19:01:05.708Z,0.90
2024-04-21T19:03:15.068Z,0.80
2024-04-21T19:05:25.003Z,1.30
2024-04-21T19:07:34.542Z,1.70
2024-04-21T19:09:44.959Z,0.80
2024-04-21T19:11:55.835Z,1.00
2024-04-21T19:14:06.575Z,0.70
2024-04-21T19:16:17.512Z,0.80
2024-04-21T19:18:28.613Z,0.80
2024-04-21T19:20:39.818Z,0.80
2024-04-21T19:22:50.998Z,0.90
2024-04-21T19:25:00.356Z,0.90
2024-04-21T19:27:10.565Z,0.90
2024-04-21T19:29:20.737Z,0.90
2024-04-21T19:31:31.449Z,0.90
2024-04-21T19:33:40.746Z,0.90
2024-04-21T19:35:50.883Z,0.70
2024-04-21T19:38:01.528Z,0.70
2024-04-21T19:40:12.418Z,1.10
2024-04-21T19:42:22.062Z,1.00
2024-04-21T19:44:31.607Z,0.90
2024-04-21T19:46:41.360Z,1.20
2024-04-21T19:48:51.886Z,1.20
2024-04-21T19:51:04.947Z,0.70
2024-04-21T19:53:14.544Z,1.00
2024-04-21T19:55:24.440Z,0.90
2024-04-21T19:57:34.218Z,0.60
2024-04-21T19:59:45.750Z,0.80
2024-04-21T20:01:55.926Z,1.00
2024-04-21T20:04:05.735Z,0.60
2024-04-21T20:06:18.551Z,0.80
2024-04-21T20:08:27.925Z,1.10
2024-04-21T20:10:38.120Z,0.60
2024-04-21T20:12:49.602Z,0.80
2024-04-21T20:15:16.171Z,0.90
2024-04-21T20:17:43.061Z,0.90
2024-04-21T20:19:52.944Z,0.80
2024-04-21T20:22:02.318Z,0.50
2024-04-21T20:24:13.052Z,1.20
2024-04-21T20:26:23.148Z,0.80
2024-04-21T20:28:33.509Z,0.70
2024-04-21T20:30:43.261Z,0.90
2024-04-21T20:32:53.231Z,0.70
2024-04-21T20:35:05.150Z,0.80
2024-04-21T20:37:15.249Z,1.40
2024-04-21T20:39:25.632Z,0.80
2024-04-21T20:41:38.360Z,1.00
2024-04-21T20:43:48.504Z,0.70
2024-04-21T20:45:58.118Z,0.90
2024-04-21T20:48:08.538Z,0.60
2024-04-21T20:50:18.283Z,0.80
2024-04-21T20:52:28.135Z,0.90
2024-04-21T20:54:37.787Z,0.70
2024-04-21T20:56:47.455Z,0.90
2024-04-21T20:58:58.455Z,1.30
2024-04-21T21:01:08.443Z,0.90
2024-04-21T21:03:19.801Z,0.70
2024-04-21T21:05:30.744Z,0.70
2024-04-21T21:07:40.333Z,1.20
2024-04-21T21:09:52.697Z,0.80
2024-04-21T21:12:02.291Z,0.80
2024-04-21T21:14:11.969Z,0.80
2024-04-21T21:16:22.207Z,1.20
2024-04-21T21:18:31.863Z,1.10
2024-04-21T21:20:41.483Z,0.70
2024-04-21T21:22:53.949Z,0.90
2024-04-21T21:25:04.049Z,0.90
2024-04-21T21:27:13.688Z,0.80
2024-04-21T21:29:23.411Z,1.20
2024-04-21T21:31:33.385Z,0.90
2024-04-21T21:33:43.086Z,0.70
2024-04-21T21:36:01.529Z,0.80
2024-04-21T21:38:11.011Z,0.80
2024-04-21T21:40:21.893Z,0.70
2024-04-21T21:42:31.361Z,0.80
2024-04-21T21:44:41.024Z,1.40
2024-04-21T21:46:50.969Z,0.80
2024-04-21T21:49:00.519Z,0.90
2024-04-21T21:51:10.439Z,0.80
2024-04-21T21:53:20.958Z,0.80
2024-04-21T21:55:30.425Z,0.80
2024-04-21T21:57:42.424Z,1.10
2024-04-21T21:59:52.280Z,0.80
2024-04-21T22:02:03.818Z,0.80
2024-04-21T22:04:13.961Z,0.70
2024-04-21T22:06:23.819Z,0.90
2024-04-21T22:08:33.507Z,0.80
2024-04-21T22:10:43.769Z,1.00
2024-04-21T22:12:55.269Z,0.80
2024-04-21T22:15:06.617Z,0.70
2024-04-21T22:17:16.086Z,1.00
2024-04-21T22:19:26.357Z,0.80
2024-04-21T22:21:35.937Z,1.10
2024-04-21T22:23:45.460Z,0.80
2024-04-21T22:25:55.524Z,1.00
2024-04-21T22:28:05.326Z,1.20
2024-04-21T22:30:15.745Z,1.00
2024-04-21T22:32:25.871Z,1.00
2024-04-21T22:34:35.742Z,0.80
2024-04-21T22:36:45.199Z,0.80
2024-04-21T22:38:55.017Z,0.70
2024-04-21T22:41:05.699Z,0.80
2024-04-21T22:43:15.334Z,1.30
2024-04-21T22:45:24.846Z,1.00
2024-04-21T22:47:35.248Z,0.70
2024-04-21T22:49:45.093Z,0.70
2024-04-21T22:51:54.484Z,0.70
2024-04-21T22:54:04.267Z,1.00
2024-04-21T22:56:22.670Z,0.70
2024-04-21T22:58:36.849Z,0.70
2024-04-21T23:00:46.786Z,0.80
2024-04-21T23:02:56.572Z,1.00
2024-04-21T23:05:07.236Z,0.80
2024-04-21T23:07:16.733Z,0.70
2024-04-21T23:09:27.258Z,0.90
2024-04-21T23:11:38.083Z,0.80
2024-04-21T23:13:48.136Z,0.80
2024-04-21T23:15:57.566Z,0.70
2024-04-21T23:18:07.818Z,0.70
2024-04-21T23:20:19.084Z,0.60
2024-04-21T23:22:29.458Z,1.10
2024-04-21T23:24:38.895Z,0.70
2024-04-21T23:26:48.447Z,0.90
2024-04-21T23:28:58.204Z,0.90
2024-04-21T23:31:07.684Z,0.80
2024-04-21T23:33:17.202Z,0.70
2024-04-21T23:35:27.973Z,0.70
2024-04-21T23:37:37.930Z,0.50
2024-04-21T23:39:48.013Z,1.00
2024-04-21T23:41:58.085Z,0.80
2024-04-21T23:44:07.572Z,0.60
2024-04-21T23:46:17.387Z,0.90
2024-04-21T23:48:26.941Z,0.60
2024-04-21T23:50:37.528Z,0.80
2024-04-21T23:52:47.373Z,0.60
2024-04-21T23:54:59.318Z,0.70
2024-04-21T23:57:08.940Z,0.60
2024-04-21T23:59:18.700Z,0.60
